Date,TemperatureHighF,TemperatureAvgF,TemperatureLowF,DewpointHighF,DewpointAvgF,DewpointLowF,HumidityHigh,HumidityAvg,HumidityLow,PressureMaxIn,PressureMinIn,WindSpeedMaxMPH,WindSpeedAvgMPH,GustSpeedMaxMPH,PrecipitationSumIn
2014-1-1,80,74,71,72,69,63,96,83,72,30.20,30.04,12,9,41,0.00
2014-1-2,83,75,68,71,68,67,98,81,58,30.04,29.86,17,8,45,0.00
2014-1-3,71,63,56,70,55,44,97,76,57,30.18,29.89,18,12,28,0.00
2014-1-4,72,66,56,68,59,-100,95,80,68,30.17,30.06,10,6,18,0.00
2014-1-5,79,72,68,73,69,66,97,89,75,30.07,29.94,14,5,33,0.00
2014-1-6,82,71,57,70,65,37,99,82,50,30.19,29.96,20,8,53,0.00
2014-1-7,56,52,47,49,42,31,86,69,46,30.30,30.19,18,14,30,0.00
2014-1-8,70,61,50,64,59,46,98,93,82,30.30,30.20,14,10,28,0.00
2014-1-9,73,71,67,72,68,64,98,91,82,30.24,30.15,15,10,44,0.00
2014-1-10,80,74,67,72,70,67,99,89,74,30.18,30.07,14,8,46,0.00
2014-1-11,83,76,68,73,71,68,98,85,65,30.12,29.97,14,7,21,0.00
2014-1-13,81,76,68,70,68,66,97,79,64,30.16,30.05,10,7,18,0.00
2014-1-14,81,72,66,72,68,66,99,87,66,30.05,29.94,32,8,51,0.00
2014-1-15,68,64,58,66,58,52,98,82,59,30.03,29.95,12,7,20,0.00
2014-1-16,58,55,47,56,45,31,92,71,38,30.15,29.95,17,10,28,0.00
2014-1-17,64,52,42,46,41,34,86,67,39,30.22,30.10,8,5,12,0.00
2014-1-18,65,54,47,49,34,-100,94,70,38,30.24,30.14,14,6,23,0.00
2014-1-19,68,54,40,53,39,-100,94,66,32,30.27,30.14,11,5,18,0.00
2014-1-20,74,62,52,60,54,49,96,78,52,30.19,30.03,9,5,15,0.00
2014-1-21,70,63,58,62,59,57,96,88,67,30.06,29.88,15,8,25,0.00
2014-1-22,61,55,47,60,44,35,97,68,41,30.16,29.89,61,12,66,0.00
2014-1-23,70,54,41,54,46,37,90,76,56,30.28,30.15,61,8,66,0.00
2014-1-24,68,59,52,54,51,50,94,77,56,30.38,30.23,16,10,47,0.00
2014-1-25,75,60,50,60,52,-100,97,79,54,30.23,30.04,8,4,13,0.00
2014-1-26,78,66,54,63,57,52,98,76,41,30.09,29.97,10,4,49,0.00
2014-1-27,82,70,58,65,63,57,98,79,52,30.03,29.93,16,6,50,0.00
2014-1-28,83,70,58,69,65,58,99,84,55,30.08,29.96,10,5,38,0.00
2014-1-29,72,66,62,71,65,61,99,96,87,30.08,29.98,14,7,22,0.00
2014-1-30,67,64,60,65,63,60,99,98,91,30.11,30.02,15,7,33,0.00
2014-1-31,82,74,64,73,70,64,100,90,71,30.09,30.01,9,6,48,0.00
2014-2-1,83,73,67,73,68,-100,99,87,64,30.14,30.05,12,6,18,0.00
2014-2-2,81,74,67,71,69,67,99,86,64,30.16,30.07,41,9,56,0.00
2014-2-3,83,76,71,72,71,70,97,84,67,30.12,30.03,11,7,17,0.00
2014-2-4,82,76,71,72,70,69,97,82,68,30.15,30.06,13,8,22,0.00
2014-2-5,83,76,71,73,71,69,96,86,63,30.11,30.01,11,7,17,0.00
2014-2-6,82,75,71,72,47,-100,99,87,68,30.13,30.03,10,4,17,0.00
2014-2-7,82,72,65,70,39,-100,99,88,65,30.15,30.06,10,5,14,0.00
2014-2-8,83,73,67,73,61,-100,100,88,61,30.11,30.00,14,6,21,0.00
2014-2-9,77,68,63,67,36,-100,99,87,69,30.10,30.00,14,7,21,0.00
2014-2-10,80,69,62,66,63,61,98,83,60,30.09,30.00,10,6,15,0.00
2014-2-11,84,73,65,69,66,61,97,80,46,30.08,29.98,10,5,59,0.00
2014-2-12,82,72,63,70,51,-100,98,85,60,30.05,29.82,17,8,26,0.00
2014-2-13,71,66,57,67,27,-100,98,80,58,29.97,29.75,20,12,32,0.00
2014-2-14,70,59,47,53,47,40,91,67,37,30.08,29.96,10,6,16,0.00
2014-2-15,77,64,56,61,53,-100,94,72,49,30.12,29.96,17,9,26,0.00
2014-2-16,77,62,50,58,52,47,91,72,38,30.18,30.09,10,5,15,0.00
2014-2-17,77,65,56,60,57,54,96,77,54,30.21,30.13,10,5,17,0.00
2014-2-18,79,68,57,65,60,57,98,78,50,30.23,30.15,41,8,51,0.00
2014-2-19,80,68,60,65,62,59,98,84,57,30.18,30.07,10,4,18,0.00
2014-2-20,81,72,62,70,67,62,98,83,60,30.17,30.07,12,7,19,0.00
2014-2-21,84,77,72,72,68,-100,93,81,65,30.10,30.01,16,9,26,0.00
2014-2-22,87,74,68,72,50,-100,99,83,55,30.11,29.98,12,5,18,0.00
2014-2-23,83,75,68,73,52,-100,99,86,65,30.08,29.98,11,5,45,0.00
2014-2-24,84,76,68,72,51,-100,99,80,57,30.03,29.95,9,5,17,0.00
2014-2-25,82,73,68,70,51,-100,99,87,56,30.03,29.92,11,5,35,0.00
2014-2-26,83,74,65,70,33,-100,99,80,52,29.97,29.75,28,9,60,0.00
2014-2-27,76,71,63,70,65,61,96,82,62,29.93,29.75,11,8,19,0.00
2014-2-28,71,64,59,63,59,55,98,85,60,30.08,29.89,11,6,18,0.00
2014-3-1,78,63,57,64,59,57,98,88,58,30.16,30.04,46,13,49,0.00
2014-3-2,79,74,66,64,62,60,89,66,53,30.17,30.08,12,6,19,0.00
2014-3-3,83,72,61,65,62,56,98,73,40,30.08,29.96,40,5,47,0.00
2014-3-4,81,71,62,67,64,61,98,80,54,30.06,29.96,40,9,58,0.00
2014-3-5,84,73,64,70,67,63,99,82,55,30.03,29.91,13,6,20,0.00
2014-3-6,83,71,66,72,68,65,99,89,58,29.99,29.77,18,7,27,0.00
2014-3-7,76,69,59,67,62,54,98,78,52,30.02,29.78,21,11,36,0.00
2014-3-8,75,62,53,61,52,-100,97,74,50,30.13,30.01,10,6,18,0.00
2014-3-9,78,70,60,65,62,59,99,79,54,30.16,30.07,8,5,13,0.00
2014-3-10,81,70,63,66,62,60,98,80,48,30.12,29.96,44,6,56,0.00
2014-3-11,81,71,60,67,63,60,97,77,53,30.02,29.85,76,8,76,0.00
2014-3-12,84,75,67,71,67,66,96,78,55,29.89,29.74,25,10,49,0.00
2014-3-13,73,68,55,69,57,45,88,69,44,30.15,29.84,15,10,26,0.00
2014-3-14,72,63,54,59,53,49,90,69,50,30.24,30.13,15,8,25,0.00
2014-3-15,80,69,58,63,59,56,98,74,46,30.17,30.03,11,5,19,0.00
2014-3-16,81,71,63,66,60,-100,93,74,54,30.05,29.81,19,9,27,0.00
2014-3-17,85,76,71,71,66,-100,92,74,57,29.83,29.72,21,11,31,0.00
2014-3-18,77,71,65,72,64,59,98,78,54,30.00,29.67,21,11,34,0.00
2014-3-19,79,68,61,66,62,60,97,83,61,30.06,29.96,10,4,17,0.00
2014-3-20,81,71,64,70,64,-100,98,83,65,30.04,29.94,12,5,19,0.00
2014-3-21,82,71,62,69,64,-100,99,83,62,30.05,29.95,13,6,22,0.00
2014-3-22,82,76,71,73,69,66,91,80,66,30.07,29.96,12,8,42,0.00
2014-3-23,86,75,67,72,65,-100,97,74,53,30.05,29.92,50,8,86,0.00
2014-3-24,74,71,65,70,67,64,98,89,72,30.04,29.90,32,7,62,0.00
2014-3-25,76,69,64,69,65,55,99,86,71,29.99,29.83,16,9,26,0.00
2014-3-26,68,61,54,55,47,41,74,61,52,30.23,29.99,18,12,23,0.00
2014-3-27,73,71,67,60,58,55,71,64,54,30.29,30.23,13,10,24,0.00
2014-3-28,80,76,71,68,65,61,82,69,59,30.16,30.05,36,12,67,0.00
2014-3-29,82,75,68,73,71,65,94,85,74,30.08,29.90,16,10,34,0.00
2014-3-30,75,68,62,67,46,-100,96,74,39,30.05,29.90,65,20,70,0.00
2014-3-31,79,66,56,65,58,53,93,77,51,30.13,30.05,45,6,58,0.00
2014-4-1,79,68,60,63,59,-100,98,77,54,30.16,30.09,9,5,17,0.00
2014-4-2,79,70,59,65,61,59,98,74,52,30.18,30.11,12,6,41,0.00
2014-4-3,81,72,62,66,64,61,96,76,59,30.16,30.06,37,9,45,0.00
2014-4-4,83,74,65,67,65,63,97,75,52,30.08,29.99,12,6,20,0.00
2014-4-5,84,75,65,69,66,64,98,76,52,30.05,29.96,20,4,47,0.00
2014-4-6,86,74,66,70,64,-100,99,76,43,30.03,29.92,20,8,57,0.00
2014-4-7,87,79,72,74,71,67,93,77,58,29.98,29.85,16,10,25,0.00
2014-4-8,88,77,67,75,71,63,96,83,59,29.92,29.73,24,12,37,0.00
2014-4-9,75,69,63,65,58,52,91,71,45,30.14,29.87,17,10,38,0.00
2014-4-10,78,68,59,59,56,51,91,67,41,30.25,30.13,14,7,27,0.00
2014-4-11,79,68,60,68,63,57,97,86,59,30.23,30.12,13,4,21,0.00
2014-4-14,84,78,75,73,72,72,92,82,68,29.92,29.89,13,9,21,0.00
2014-4-15,87,78,70,74,72,70,98,84,59,29.92,29.81,14,7,20,0.00
2014-4-16,79,73,69,73,69,65,98,87,68,30.06,29.91,20,9,50,0.00